sensor_id;sensor_type;location;lat;lon;timestamp;P1;durP1;ratioP1;P2;durP2;ratioP2
80295;SDS011;74188;42.148;24.762;2023-12-07T00:01:08;29.75;;;15.45;;
80295;SDS011;74188;42.148;24.762;2023-12-07T00:03:34;29.52;;;16.40;;
80295;SDS011;74188;42.148;24.762;2023-12-07T00:05:59;30.70;;;15.57;;
80295;SDS011;74188;42.148;24.762;2023-12-07T00:08:28;33.20;;;17.13;;
80295;SDS011;74188;42.148;24.762;2023-12-07T00:13:19;30.35;;;15.30;;
80295;SDS011;74188;42.148;24.762;2023-12-07T00:15:45;31.70;;;15.90;;
80295;SDS011;74188;42.148;24.762;2023-12-07T00:18:10;27.10;;;15.02;;
80295;SDS011;74188;42.148;24.762;2023-12-07T00:20:36;27.52;;;14.38;;
80295;SDS011;74188;42.148;24.762;2023-12-07T00:23:01;24.95;;;14.60;;
80295;SDS011;74188;42.148;24.762;2023-12-07T00:25:28;25.95;;;14.90;;
80295;SDS011;74188;42.148;24.762;2023-12-07T00:27:53;27.67;;;14.45;;
80295;SDS011;74188;42.148;24.762;2023-12-07T00:30:19;28.77;;;14.60;;
80295;SDS011;74188;42.148;24.762;2023-12-07T00:32:45;26.20;;;14.57;;
80295;SDS011;74188;42.148;24.762;2023-12-07T00:35:11;27.85;;;14.30;;
80295;SDS011;74188;42.148;24.762;2023-12-07T00:37:37;27.83;;;15.02;;
80295;SDS011;74188;42.148;24.762;2023-12-07T00:40:03;29.77;;;15.95;;
80295;SDS011;74188;42.148;24.762;2023-12-07T00:42:29;26.65;;;14.23;;
80295;SDS011;74188;42.148;24.762;2023-12-07T00:44:55;25.40;;;14.38;;
80295;SDS011;74188;42.148;24.762;2023-12-07T00:47:22;26.40;;;14.52;;
80295;SDS011;74188;42.148;24.762;2023-12-07T00:49:47;23.55;;;13.43;;
80295;SDS011;74188;42.148;24.762;2023-12-07T00:52:13;23.40;;;12.82;;
80295;SDS011;74188;42.148;24.762;2023-12-07T00:54:39;23.55;;;13.65;;
80295;SDS011;74188;42.148;24.762;2023-12-07T00:57:05;26.65;;;14.60;;
80295;SDS011;74188;42.148;24.762;2023-12-07T00:59:31;27.10;;;14.20;;
80295;SDS011;74188;42.148;24.762;2023-12-07T01:02:05;30.20;;;15.57;;
80295;SDS011;74188;42.148;24.762;2023-12-07T01:04:31;26.13;;;14.38;;
80295;SDS011;74188;42.148;24.762;2023-12-07T01:06:58;27.70;;;14.65;;
80295;SDS011;74188;42.148;24.762;2023-12-07T01:09:23;26.10;;;14.60;;
80295;SDS011;74188;42.148;24.762;2023-12-07T01:11:52;35.90;;;18.45;;
80295;SDS011;74188;42.148;24.762;2023-12-07T01:14:26;41.90;;;21.30;;
80295;SDS011;74188;42.148;24.762;2023-12-07T01:16:52;44.92;;;21.98;;
80295;SDS011;74188;42.148;24.762;2023-12-07T01:19:17;41.47;;;20.98;;
80295;SDS011;74188;42.148;24.762;2023-12-07T01:21:43;38.80;;;19.00;;
80295;SDS011;74188;42.148;24.762;2023-12-07T01:24:10;37.05;;;19.77;;
80295;SDS011;74188;42.148;24.762;2023-12-07T01:26:36;35.60;;;18.80;;
80295;SDS011;74188;42.148;24.762;2023-12-07T01:29:01;34.38;;;17.60;;
80295;SDS011;74188;42.148;24.762;2023-12-07T01:31:27;29.92;;;15.98;;
80295;SDS011;74188;42.148;24.762;2023-12-07T01:33:54;25.10;;;14.40;;
80295;SDS011;74188;42.148;24.762;2023-12-07T01:36:19;27.25;;;14.50;;
80295;SDS011;74188;42.148;24.762;2023-12-07T01:38:45;26.45;;;14.57;;
80295;SDS011;74188;42.148;24.762;2023-12-07T01:41:11;24.08;;;13.65;;
80295;SDS011;74188;42.148;24.762;2023-12-07T01:43:37;26.75;;;14.23;;
80295;SDS011;74188;42.148;24.762;2023-12-07T01:46:09;26.48;;;13.80;;
80295;SDS011;74188;42.148;24.762;2023-12-07T01:48:35;24.90;;;14.07;;
80295;SDS011;74188;42.148;24.762;2023-12-07T01:51:01;24.23;;;13.18;;
80295;SDS011;74188;42.148;24.762;2023-12-07T01:53:26;24.95;;;13.73;;
80295;SDS011;74188;42.148;24.762;2023-12-07T01:55:53;23.42;;;13.02;;
80295;SDS011;74188;42.148;24.762;2023-12-07T01:58:19;24.25;;;13.75;;
80295;SDS011;74188;42.148;24.762;2023-12-07T02:00:46;25.13;;;13.02;;
80295;SDS011;74188;42.148;24.762;2023-12-07T02:03:12;25.23;;;14.10;;
80295;SDS011;74188;42.148;24.762;2023-12-07T02:05:40;23.48;;;13.93;;
80295;SDS011;74188;42.148;24.762;2023-12-07T02:08:08;24.20;;;14.18;;
80295;SDS011;74188;42.148;24.762;2023-12-07T02:10:34;22.90;;;13.13;;
80295;SDS011;74188;42.148;24.762;2023-12-07T02:13:00;23.17;;;13.57;;
80295;SDS011;74188;42.148;24.762;2023-12-07T02:15:26;27.42;;;14.45;;
80295;SDS011;74188;42.148;24.762;2023-12-07T02:18:01;24.13;;;12.88;;
80295;SDS011;74188;42.148;24.762;2023-12-07T02:20:37;24.63;;;13.50;;
80295;SDS011;74188;42.148;24.762;2023-12-07T02:23:20;22.58;;;12.77;;
80295;SDS011;74188;42.148;24.762;2023-12-07T02:28:19;26.88;;;14.05;;
80295;SDS011;74188;42.148;24.762;2023-12-07T02:30:45;23.20;;;13.02;;
80295;SDS011;74188;42.148;24.762;2023-12-07T02:33:11;23.55;;;12.50;;
80295;SDS011;74188;42.148;24.762;2023-12-07T02:35:37;24.80;;;13.30;;
80295;SDS011;74188;42.148;24.762;2023-12-07T02:38:03;24.17;;;13.43;;
80295;SDS011;74188;42.148;24.762;2023-12-07T02:40:31;24.77;;;13.95;;
80295;SDS011;74188;42.148;24.762;2023-12-07T02:42:57;23.63;;;13.02;;
80295;SDS011;74188;42.148;24.762;2023-12-07T02:45:24;26.48;;;14.95;;
80295;SDS011;74188;42.148;24.762;2023-12-07T02:47:51;29.48;;;16.58;;
80295;SDS011;74188;42.148;24.762;2023-12-07T02:50:17;30.20;;;16.65;;
80295;SDS011;74188;42.148;24.762;2023-12-07T02:52:42;32.67;;;17.70;;
80295;SDS011;74188;42.148;24.762;2023-12-07T02:55:08;31.73;;;18.13;;
80295;SDS011;74188;42.148;24.762;2023-12-07T02:57:34;31.55;;;17.70;;
80295;SDS011;74188;42.148;24.762;2023-12-07T03:00:00;37.08;;;19.38;;
80295;SDS011;74188;42.148;24.762;2023-12-07T03:02:31;41.55;;;22.00;;
80295;SDS011;74188;42.148;24.762;2023-12-07T03:05:00;40.53;;;21.15;;
80295;SDS011;74188;42.148;24.762;2023-12-07T03:07:26;40.30;;;20.83;;
80295;SDS011;74188;42.148;24.762;2023-12-07T03:09:52;38.03;;;19.60;;
80295;SDS011;74188;42.148;24.762;2023-12-07T03:12:17;34.60;;;18.20;;
80295;SDS011;74188;42.148;24.762;2023-12-07T03:14:43;33.97;;;18.23;;
80295;SDS011;74188;42.148;24.762;2023-12-07T03:17:09;36.38;;;19.50;;
80295;SDS011;74188;42.148;24.762;2023-12-07T03:19:37;39.55;;;20.92;;
80295;SDS011;74188;42.148;24.762;2023-12-07T03:22:03;42.03;;;20.58;;
80295;SDS011;74188;42.148;24.762;2023-12-07T03:24:31;43.83;;;21.15;;
80295;SDS011;74188;42.148;24.762;2023-12-07T03:26:58;46.47;;;25.45;;
80295;SDS011;74188;42.148;24.762;2023-12-07T03:29:23;44.13;;;21.40;;
80295;SDS011;74188;42.148;24.762;2023-12-07T03:31:49;40.38;;;21.75;;
80295;SDS011;74188;42.148;24.762;2023-12-07T03:34:14;40.65;;;20.52;;
80295;SDS011;74188;42.148;24.762;2023-12-07T03:36:41;40.65;;;21.42;;
80295;SDS011;74188;42.148;24.762;2023-12-07T03:39:10;35.40;;;20.00;;
80295;SDS011;74188;42.148;24.762;2023-12-07T03:41:35;42.40;;;21.77;;
80295;SDS011;74188;42.148;24.762;2023-12-07T03:44:01;39.72;;;20.75;;
80295;SDS011;74188;42.148;24.762;2023-12-07T03:46:27;36.92;;;18.95;;
80295;SDS011;74188;42.148;24.762;2023-12-07T03:48:52;39.05;;;19.80;;
80295;SDS011;74188;42.148;24.762;2023-12-07T03:51:18;39.33;;;20.65;;
80295;SDS011;74188;42.148;24.762;2023-12-07T03:53:43;38.67;;;21.20;;
80295;SDS011;74188;42.148;24.762;2023-12-07T03:56:09;41.80;;;20.17;;
80295;SDS011;74188;42.148;24.762;2023-12-07T03:58:35;37.05;;;19.45;;
80295;SDS011;74188;42.148;24.762;2023-12-07T04:01:01;36.72;;;18.88;;
80295;SDS011;74188;42.148;24.762;2023-12-07T04:03:26;35.10;;;18.27;;
80295;SDS011;74188;42.148;24.762;2023-12-07T04:05:52;35.60;;;19.55;;
80295;SDS011;74188;42.148;24.762;2023-12-07T04:08:17;35.58;;;17.83;;
80295;SDS011;74188;42.148;24.762;2023-12-07T04:10:43;38.22;;;19.23;;
80295;SDS011;74188;42.148;24.762;2023-12-07T04:13:09;35.85;;;19.23;;
80295;SDS011;74188;42.148;24.762;2023-12-07T04:15:34;40.05;;;20.42;;
80295;SDS011;74188;42.148;24.762;2023-12-07T04:18:00;35.92;;;20.98;;
80295;SDS011;74188;42.148;24.762;2023-12-07T04:20:26;39.75;;;21.48;;
80295;SDS011;74188;42.148;24.762;2023-12-07T04:22:51;37.78;;;20.42;;
80295;SDS011;74188;42.148;24.762;2023-12-07T04:25:17;40.53;;;20.92;;
80295;SDS011;74188;42.148;24.762;2023-12-07T04:27:43;38.28;;;19.98;;
80295;SDS011;74188;42.148;24.762;2023-12-07T04:30:09;36.85;;;19.35;;
80295;SDS011;74188;42.148;24.762;2023-12-07T04:32:35;38.88;;;20.27;;
80295;SDS011;74188;42.148;24.762;2023-12-07T04:35:01;40.88;;;21.40;;
80295;SDS011;74188;42.148;24.762;2023-12-07T04:37:26;38.40;;;20.80;;
80295;SDS011;74188;42.148;24.762;2023-12-07T04:39:52;41.42;;;20.58;;
80295;SDS011;74188;42.148;24.762;2023-12-07T04:42:17;43.65;;;21.08;;
80295;SDS011;74188;42.148;24.762;2023-12-07T04:44:43;43.03;;;21.17;;
80295;SDS011;74188;42.148;24.762;2023-12-07T04:47:09;37.60;;;18.92;;
80295;SDS011;74188;42.148;24.762;2023-12-07T04:49:34;36.75;;;19.10;;
80295;SDS011;74188;42.148;24.762;2023-12-07T04:52:00;39.75;;;21.17;;
80295;SDS011;74188;42.148;24.762;2023-12-07T04:54:26;41.95;;;20.60;;
80295;SDS011;74188;42.148;24.762;2023-12-07T04:56:52;40.20;;;21.02;;
80295;SDS011;74188;42.148;24.762;2023-12-07T04:59:19;38.17;;;20.60;;
80295;SDS011;74188;42.148;24.762;2023-12-07T05:01:44;40.88;;;21.92;;
80295;SDS011;74188;42.148;24.762;2023-12-07T05:04:11;45.15;;;21.75;;
80295;SDS011;74188;42.148;24.762;2023-12-07T05:06:37;39.78;;;21.45;;
80295;SDS011;74188;42.148;24.762;2023-12-07T05:09:03;42.08;;;22.35;;
80295;SDS011;74188;42.148;24.762;2023-12-07T05:11:29;41.50;;;21.73;;
80295;SDS011;74188;42.148;24.762;2023-12-07T05:13:54;42.38;;;22.00;;
80295;SDS011;74188;42.148;24.762;2023-12-07T05:16:20;38.60;;;21.48;;
80295;SDS011;74188;42.148;24.762;2023-12-07T05:18:46;38.70;;;20.40;;
80295;SDS011;74188;42.148;24.762;2023-12-07T05:21:32;35.35;;;18.98;;
80295;SDS011;74188;42.148;24.762;2023-12-07T05:23:57;35.25;;;19.23;;
80295;SDS011;74188;42.148;24.762;2023-12-07T05:26:23;38.60;;;20.88;;
80295;SDS011;74188;42.148;24.762;2023-12-07T05:28:48;35.20;;;20.60;;
80295;SDS011;74188;42.148;24.762;2023-12-07T05:31:18;50.55;;;29.67;;
80295;SDS011;74188;42.148;24.762;2023-12-07T05:33:44;53.90;;;29.70;;
80295;SDS011;74188;42.148;24.762;2023-12-07T05:36:09;56.42;;;31.50;;
80295;SDS011;74188;42.148;24.762;2023-12-07T05:38:35;56.72;;;31.58;;
80295;SDS011;74188;42.148;24.762;2023-12-07T05:41:01;53.95;;;29.60;;
80295;SDS011;74188;42.148;24.762;2023-12-07T05:43:27;46.60;;;27.02;;
80295;SDS011;74188;42.148;24.762;2023-12-07T05:45:52;48.33;;;26.55;;
80295;SDS011;74188;42.148;24.762;2023-12-07T05:48:18;43.78;;;25.70;;
80295;SDS011;74188;42.148;24.762;2023-12-07T05:50:43;46.95;;;26.33;;
80295;SDS011;74188;42.148;24.762;2023-12-07T05:53:09;48.92;;;26.23;;
80295;SDS011;74188;42.148;24.762;2023-12-07T05:55:36;42.85;;;24.98;;
80295;SDS011;74188;42.148;24.762;2023-12-07T05:58:02;46.08;;;25.65;;
80295;SDS011;74188;42.148;24.762;2023-12-07T06:00:29;49.92;;;27.08;;
80295;SDS011;74188;42.148;24.762;2023-12-07T06:02:54;54.15;;;26.95;;
80295;SDS011;74188;42.148;24.762;2023-12-07T06:05:20;52.92;;;27.55;;
80295;SDS011;74188;42.148;24.762;2023-12-07T06:07:46;51.72;;;27.88;;
80295;SDS011;74188;42.148;24.762;2023-12-07T06:10:15;50.35;;;28.90;;
80295;SDS011;74188;42.148;24.762;2023-12-07T06:12:41;47.88;;;28.30;;
80295;SDS011;74188;42.148;24.762;2023-12-07T06:15:08;57.47;;;31.65;;
80295;SDS011;74188;42.148;24.762;2023-12-07T06:17:34;54.67;;;30.25;;
80295;SDS011;74188;42.148;24.762;2023-12-07T06:20:00;54.75;;;31.98;;
80295;SDS011;74188;42.148;24.762;2023-12-07T06:22:26;61.78;;;33.35;;
80295;SDS011;74188;42.148;24.762;2023-12-07T06:24:52;78.88;;;40.47;;
80295;SDS011;74188;42.148;24.762;2023-12-07T06:27:17;86.47;;;45.03;;
80295;SDS011;74188;42.148;24.762;2023-12-07T06:29:43;72.32;;;40.88;;
80295;SDS011;74188;42.148;24.762;2023-12-07T06:32:09;68.55;;;34.75;;
80295;SDS011;74188;42.148;24.762;2023-12-07T06:34:39;51.05;;;30.60;;
80295;SDS011;74188;42.148;24.762;2023-12-07T06:37:07;55.38;;;30.98;;
80295;SDS011;74188;42.148;24.762;2023-12-07T06:39:35;57.38;;;31.92;;
80295;SDS011;74188;42.148;24.762;2023-12-07T06:42:01;54.83;;;31.13;;
80295;SDS011;74188;42.148;24.762;2023-12-07T06:44:27;53.63;;;31.23;;
80295;SDS011;74188;42.148;24.762;2023-12-07T06:46:53;58.85;;;32.10;;
80295;SDS011;74188;42.148;24.762;2023-12-07T06:49:19;81.28;;;44.60;;
80295;SDS011;74188;42.148;24.762;2023-12-07T06:51:44;63.15;;;36.97;;
80295;SDS011;74188;42.148;24.762;2023-12-07T06:54:10;55.53;;;31.58;;
80295;SDS011;74188;42.148;24.762;2023-12-07T06:56:36;53.65;;;32.88;;
80295;SDS011;74188;42.148;24.762;2023-12-07T06:59:01;55.22;;;32.58;;
80295;SDS011;74188;42.148;24.762;2023-12-07T07:01:27;57.20;;;31.30;;
80295;SDS011;74188;42.148;24.762;2023-12-07T07:03:53;58.08;;;35.85;;
80295;SDS011;74188;42.148;24.762;2023-12-07T07:06:18;58.95;;;36.05;;
80295;SDS011;74188;42.148;24.762;2023-12-07T07:08:44;62.60;;;38.45;;
80295;SDS011;74188;42.148;24.762;2023-12-07T07:11:11;60.88;;;39.00;;
80295;SDS011;74188;42.148;24.762;2023-12-07T07:13:38;63.92;;;40.28;;
80295;SDS011;74188;42.148;24.762;2023-12-07T07:16:04;78.03;;;43.88;;
80295;SDS011;74188;42.148;24.762;2023-12-07T07:18:32;86.40;;;45.95;;
80295;SDS011;74188;42.148;24.762;2023-12-07T07:20:58;88.93;;;48.00;;
80295;SDS011;74188;42.148;24.762;2023-12-07T07:23:24;70.85;;;40.67;;
80295;SDS011;74188;42.148;24.762;2023-12-07T07:25:49;62.03;;;35.50;;
80295;SDS011;74188;42.148;24.762;2023-12-07T07:28:15;56.15;;;31.75;;
80295;SDS011;74188;42.148;24.762;2023-12-07T07:30:41;54.25;;;30.92;;
80295;SDS011;74188;42.148;24.762;2023-12-07T07:33:06;53.90;;;33.08;;
80295;SDS011;74188;42.148;24.762;2023-12-07T07:35:32;52.40;;;33.13;;
80295;SDS011;74188;42.148;24.762;2023-12-07T07:37:58;50.33;;;33.00;;
80295;SDS011;74188;42.148;24.762;2023-12-07T07:40:23;53.60;;;33.15;;
80295;SDS011;74188;42.148;24.762;2023-12-07T07:42:49;47.83;;;31.27;;
80295;SDS011;74188;42.148;24.762;2023-12-07T07:45:15;47.22;;;31.42;;
80295;SDS011;74188;42.148;24.762;2023-12-07T07:47:41;46.40;;;30.85;;
80295;SDS011;74188;42.148;24.762;2023-12-07T07:50:07;47.53;;;30.35;;
80295;SDS011;74188;42.148;24.762;2023-12-07T07:52:33;45.20;;;30.63;;
80295;SDS011;74188;42.148;24.762;2023-12-07T07:55:05;51.47;;;34.10;;
80295;SDS011;74188;42.148;24.762;2023-12-07T07:57:32;54.00;;;35.20;;
80295;SDS011;74188;42.148;24.762;2023-12-07T07:59:57;54.83;;;34.30;;
80295;SDS011;74188;42.148;24.762;2023-12-07T08:02:23;56.00;;;35.40;;
80295;SDS011;74188;42.148;24.762;2023-12-07T08:04:49;58.13;;;37.38;;
80295;SDS011;74188;42.148;24.762;2023-12-07T08:07:16;64.60;;;34.58;;
80295;SDS011;74188;42.148;24.762;2023-12-07T08:09:42;51.88;;;32.50;;
80295;SDS011;74188;42.148;24.762;2023-12-07T08:12:08;44.35;;;28.17;;
80295;SDS011;74188;42.148;24.762;2023-12-07T08:14:37;45.72;;;29.67;;
80295;SDS011;74188;42.148;24.762;2023-12-07T08:17:03;47.25;;;29.23;;
80295;SDS011;74188;42.148;24.762;2023-12-07T08:19:29;48.85;;;29.83;;
80295;SDS011;74188;42.148;24.762;2023-12-07T08:21:54;45.85;;;29.08;;
80295;SDS011;74188;42.148;24.762;2023-12-07T08:24:20;46.20;;;29.02;;
80295;SDS011;74188;42.148;24.762;2023-12-07T08:26:46;46.50;;;28.38;;
80295;SDS011;74188;42.148;24.762;2023-12-07T08:29:11;42.65;;;27.83;;
80295;SDS011;74188;42.148;24.762;2023-12-07T08:31:38;49.55;;;28.40;;
80295;SDS011;74188;42.148;24.762;2023-12-07T08:34:05;46.08;;;29.05;;
80295;SDS011;74188;42.148;24.762;2023-12-07T08:36:30;46.63;;;29.70;;
80295;SDS011;74188;42.148;24.762;2023-12-07T08:38:56;46.55;;;29.92;;
80295;SDS011;74188;42.148;24.762;2023-12-07T08:41:22;43.08;;;30.10;;
80295;SDS011;74188;42.148;24.762;2023-12-07T08:43:48;45.67;;;30.17;;
80295;SDS011;74188;42.148;24.762;2023-12-07T08:46:14;49.03;;;31.08;;
80295;SDS011;74188;42.148;24.762;2023-12-07T08:48:39;51.65;;;32.42;;
80295;SDS011;74188;42.148;24.762;2023-12-07T08:51:05;46.08;;;31.30;;
80295;SDS011;74188;42.148;24.762;2023-12-07T08:53:33;74.82;;;44.03;;
80295;SDS011;74188;42.148;24.762;2023-12-07T08:55:59;58.78;;;36.30;;
80295;SDS011;74188;42.148;24.762;2023-12-07T08:58:26;58.08;;;36.22;;
80295;SDS011;74188;42.148;24.762;2023-12-07T09:00:52;65.75;;;38.13;;
80295;SDS011;74188;42.148;24.762;2023-12-07T09:03:17;66.95;;;37.72;;
80295;SDS011;74188;42.148;24.762;2023-12-07T09:05:43;53.90;;;33.25;;
80295;SDS011;74188;42.148;24.762;2023-12-07T09:08:08;65.30;;;35.75;;
80295;SDS011;74188;42.148;24.762;2023-12-07T09:10:34;52.03;;;32.97;;
80295;SDS011;74188;42.148;24.762;2023-12-07T09:13:00;42.50;;;27.10;;
80295;SDS011;74188;42.148;24.762;2023-12-07T09:15:26;35.63;;;24.42;;
80295;SDS011;74188;42.148;24.762;2023-12-07T09:17:52;37.38;;;24.92;;
80295;SDS011;74188;42.148;24.762;2023-12-07T09:20:17;35.45;;;22.98;;
80295;SDS011;74188;42.148;24.762;2023-12-07T09:22:44;35.53;;;23.73;;
80295;SDS011;74188;42.148;24.762;2023-12-07T09:25:10;36.53;;;22.13;;
80295;SDS011;74188;42.148;24.762;2023-12-07T09:27:37;36.40;;;22.42;;
80295;SDS011;74188;42.148;24.762;2023-12-07T09:30:04;30.33;;;18.60;;
80295;SDS011;74188;42.148;24.762;2023-12-07T09:32:32;24.10;;;16.13;;
80295;SDS011;74188;42.148;24.762;2023-12-07T09:35:06;25.63;;;17.05;;
80295;SDS011;74188;42.148;24.762;2023-12-07T09:37:32;24.60;;;17.40;;
80295;SDS011;74188;42.148;24.762;2023-12-07T09:39:59;26.00;;;17.33;;
80295;SDS011;74188;42.148;24.762;2023-12-07T09:42:25;24.52;;;15.45;;
80295;SDS011;74188;42.148;24.762;2023-12-07T09:44:51;21.70;;;14.95;;
80295;SDS011;74188;42.148;24.762;2023-12-07T09:47:17;21.20;;;14.95;;
80295;SDS011;74188;42.148;24.762;2023-12-07T09:49:43;23.42;;;15.38;;
80295;SDS011;74188;42.148;24.762;2023-12-07T09:52:10;25.27;;;18.55;;
80295;SDS011;74188;42.148;24.762;2023-12-07T09:54:39;26.55;;;16.40;;
80295;SDS011;74188;42.148;24.762;2023-12-07T09:57:06;20.45;;;14.55;;
80295;SDS011;74188;42.148;24.762;2023-12-07T09:59:33;19.92;;;14.48;;
80295;SDS011;74188;42.148;24.762;2023-12-07T10:02:01;20.13;;;13.95;;
80295;SDS011;74188;42.148;24.762;2023-12-07T10:04:27;18.33;;;12.77;;
80295;SDS011;74188;42.148;24.762;2023-12-07T10:06:53;19.08;;;12.70;;
80295;SDS011;74188;42.148;24.762;2023-12-07T10:09:19;20.65;;;12.63;;
80295;SDS011;74188;42.148;24.762;2023-12-07T10:11:46;19.60;;;13.45;;
80295;SDS011;74188;42.148;24.762;2023-12-07T10:14:12;17.55;;;13.00;;
80295;SDS011;74188;42.148;24.762;2023-12-07T10:16:38;20.63;;;13.75;;
80295;SDS011;74188;42.148;24.762;2023-12-07T10:19:13;18.30;;;13.18;;
80295;SDS011;74188;42.148;24.762;2023-12-07T10:21:41;19.52;;;12.48;;
80295;SDS011;74188;42.148;24.762;2023-12-07T10:24:07;22.65;;;13.13;;
80295;SDS011;74188;42.148;24.762;2023-12-07T10:26:34;20.42;;;12.82;;
80295;SDS011;74188;42.148;24.762;2023-12-07T10:29:02;18.40;;;12.00;;
80295;SDS011;74188;42.148;24.762;2023-12-07T10:31:31;21.45;;;12.70;;
80295;SDS011;74188;42.148;24.762;2023-12-07T10:33:57;20.65;;;12.15;;
80295;SDS011;74188;42.148;24.762;2023-12-07T10:36:25;17.00;;;12.05;;
80295;SDS011;74188;42.148;24.762;2023-12-07T10:38:51;17.33;;;11.80;;
80295;SDS011;74188;42.148;24.762;2023-12-07T10:41:16;17.58;;;11.48;;
80295;SDS011;74188;42.148;24.762;2023-12-07T10:43:49;19.88;;;11.98;;
80295;SDS011;74188;42.148;24.762;2023-12-07T10:46:19;16.58;;;10.40;;
80295;SDS011;74188;42.148;24.762;2023-12-07T10:48:51;17.73;;;10.77;;
80295;SDS011;74188;42.148;24.762;2023-12-07T10:54:15;18.02;;;10.65;;
80295;SDS011;74188;42.148;24.762;2023-12-07T10:56:46;19.33;;;11.05;;
80295;SDS011;74188;42.148;24.762;2023-12-07T10:59:14;20.00;;;11.00;;
80295;SDS011;74188;42.148;24.762;2023-12-07T11:01:40;17.48;;;11.38;;
80295;SDS011;74188;42.148;24.762;2023-12-07T11:04:08;18.38;;;10.40;;
80295;SDS011;74188;42.148;24.762;2023-12-07T11:06:44;18.85;;;10.02;;
80295;SDS011;74188;42.148;24.762;2023-12-07T11:09:15;16.90;;;11.00;;
80295;SDS011;74188;42.148;24.762;2023-12-07T11:11:54;19.52;;;11.32;;
80295;SDS011;74188;42.148;24.762;2023-12-07T11:14:24;17.10;;;10.82;;
80295;SDS011;74188;42.148;24.762;2023-12-07T11:16:50;17.52;;;10.85;;
80295;SDS011;74188;42.148;24.762;2023-12-07T11:22:01;18.80;;;12.50;;
80295;SDS011;74188;42.148;24.762;2023-12-07T11:24:35;17.05;;;11.65;;
80295;SDS011;74188;42.148;24.762;2023-12-07T11:27:01;18.25;;;11.32;;
80295;SDS011;74188;42.148;24.762;2023-12-07T11:29:30;16.33;;;10.77;;
80295;SDS011;74188;42.148;24.762;2023-12-07T11:31:58;14.93;;;10.57;;
80295;SDS011;74188;42.148;24.762;2023-12-07T11:34:40;17.02;;;10.23;;
80295;SDS011;74188;42.148;24.762;2023-12-07T11:37:06;14.25;;;9.43;;
80295;SDS011;74188;42.148;24.762;2023-12-07T11:39:36;12.85;;;8.95;;
80295;SDS011;74188;42.148;24.762;2023-12-07T11:42:10;16.70;;;10.07;;
80295;SDS011;74188;42.148;24.762;2023-12-07T11:44:49;12.27;;;8.27;;
80295;SDS011;74188;42.148;24.762;2023-12-07T11:47:16;13.02;;;8.25;;
80295;SDS011;74188;42.148;24.762;2023-12-07T11:49:43;13.02;;;8.05;;
80295;SDS011;74188;42.148;24.762;2023-12-07T11:52:13;12.70;;;7.78;;
80295;SDS011;74188;42.148;24.762;2023-12-07T11:54:46;17.52;;;9.48;;
80295;SDS011;74188;42.148;24.762;2023-12-07T11:57:13;16.08;;;9.68;;
80295;SDS011;74188;42.148;24.762;2023-12-07T11:59:39;18.00;;;10.48;;
80295;SDS011;74188;42.148;24.762;2023-12-07T12:02:06;17.65;;;9.82;;
80295;SDS011;74188;42.148;24.762;2023-12-07T12:04:32;17.75;;;9.23;;
80295;SDS011;74188;42.148;24.762;2023-12-07T12:06:57;15.77;;;8.60;;
80295;SDS011;74188;42.148;24.762;2023-12-07T12:09:26;14.55;;;8.73;;
80295;SDS011;74188;42.148;24.762;2023-12-07T12:11:52;19.13;;;8.23;;
80295;SDS011;74188;42.148;24.762;2023-12-07T12:14:18;15.18;;;7.70;;
80295;SDS011;74188;42.148;24.762;2023-12-07T12:16:47;14.63;;;8.10;;
80295;SDS011;74188;42.148;24.762;2023-12-07T12:19:13;12.48;;;6.65;;
80295;SDS011;74188;42.148;24.762;2023-12-07T12:21:42;14.00;;;7.22;;
80295;SDS011;74188;42.148;24.762;2023-12-07T12:24:12;14.75;;;7.78;;
80295;SDS011;74188;42.148;24.762;2023-12-07T12:26:41;12.52;;;7.82;;
80295;SDS011;74188;42.148;24.762;2023-12-07T12:29:07;17.97;;;8.33;;
80295;SDS011;74188;42.148;24.762;2023-12-07T12:31:34;15.85;;;8.32;;
80295;SDS011;74188;42.148;24.762;2023-12-07T12:34:00;16.63;;;9.55;;
80295;SDS011;74188;42.148;24.762;2023-12-07T12:36:27;19.17;;;10.63;;
80295;SDS011;74188;42.148;24.762;2023-12-07T12:38:54;15.05;;;8.10;;
80295;SDS011;74188;42.148;24.762;2023-12-07T12:41:21;18.45;;;8.63;;
80295;SDS011;74188;42.148;24.762;2023-12-07T12:43:47;16.85;;;8.80;;
80295;SDS011;74188;42.148;24.762;2023-12-07T12:46:13;23.80;;;10.48;;
80295;SDS011;74188;42.148;24.762;2023-12-07T12:51:19;21.52;;;10.00;;
80295;SDS011;74188;42.148;24.762;2023-12-07T12:53:46;14.77;;;8.50;;
80295;SDS011;74188;42.148;24.762;2023-12-07T12:56:13;15.13;;;8.70;;
80295;SDS011;74188;42.148;24.762;2023-12-07T12:58:40;26.23;;;9.95;;
80295;SDS011;74188;42.148;24.762;2023-12-07T13:01:08;21.52;;;11.18;;
80295;SDS011;74188;42.148;24.762;2023-12-07T13:03:33;29.45;;;13.52;;
80295;SDS011;74188;42.148;24.762;2023-12-07T13:05:59;21.08;;;11.55;;
80295;SDS011;74188;42.148;24.762;2023-12-07T13:08:25;15.52;;;9.35;;
80295;SDS011;74188;42.148;24.762;2023-12-07T13:10:50;12.82;;;8.13;;
80295;SDS011;74188;42.148;24.762;2023-12-07T13:13:17;12.63;;;8.32;;
80295;SDS011;74188;42.148;24.762;2023-12-07T13:15:42;14.38;;;8.30;;
80295;SDS011;74188;42.148;24.762;2023-12-07T13:18:08;15.07;;;9.30;;
80295;SDS011;74188;42.148;24.762;2023-12-07T13:20:34;15.10;;;8.82;;
80295;SDS011;74188;42.148;24.762;2023-12-07T13:23:03;15.20;;;8.65;;
80295;SDS011;74188;42.148;24.762;2023-12-07T13:25:29;21.13;;;8.90;;
80295;SDS011;74188;42.148;24.762;2023-12-07T13:27:55;18.55;;;11.50;;
80295;SDS011;74188;42.148;24.762;2023-12-07T13:30:21;17.52;;;9.45;;
80295;SDS011;74188;42.148;24.762;2023-12-07T13:32:54;21.30;;;11.15;;
80295;SDS011;74188;42.148;24.762;2023-12-07T13:35:20;26.67;;;14.93;;
80295;SDS011;74188;42.148;24.762;2023-12-07T13:37:47;17.08;;;10.15;;
80295;SDS011;74188;42.148;24.762;2023-12-07T13:40:12;13.43;;;8.75;;
80295;SDS011;74188;42.148;24.762;2023-12-07T13:42:40;17.80;;;9.83;;
80295;SDS011;74188;42.148;24.762;2023-12-07T13:45:06;16.27;;;10.00;;
80295;SDS011;74188;42.148;24.762;2023-12-07T13:47:33;24.05;;;13.95;;
80295;SDS011;74188;42.148;24.762;2023-12-07T13:50:02;23.77;;;13.65;;
80295;SDS011;74188;42.148;24.762;2023-12-07T13:52:29;18.48;;;10.85;;
80295;SDS011;74188;42.148;24.762;2023-12-07T13:54:56;23.92;;;14.77;;
80295;SDS011;74188;42.148;24.762;2023-12-07T13:57:22;25.15;;;16.73;;
80295;SDS011;74188;42.148;24.762;2023-12-07T13:59:52;20.02;;;13.23;;
80295;SDS011;74188;42.148;24.762;2023-12-07T14:02:18;21.65;;;13.57;;
80295;SDS011;74188;42.148;24.762;2023-12-07T14:04:44;21.98;;;14.15;;
80295;SDS011;74188;42.148;24.762;2023-12-07T14:07:14;26.42;;;15.27;;
80295;SDS011;74188;42.148;24.762;2023-12-07T14:09:46;32.20;;;18.55;;
80295;SDS011;74188;42.148;24.762;2023-12-07T14:12:14;32.45;;;20.02;;
80295;SDS011;74188;42.148;24.762;2023-12-07T14:14:40;29.17;;;18.88;;
80295;SDS011;74188;42.148;24.762;2023-12-07T14:17:06;31.73;;;18.27;;
80295;SDS011;74188;42.148;24.762;2023-12-07T14:19:32;35.88;;;19.30;;
80295;SDS011;74188;42.148;24.762;2023-12-07T14:21:58;38.67;;;21.17;;